sensor_id;sensor_type;location;lat;lon;timestamp;P1;durP1;ratioP1;P2;durP2;ratioP2
37483;SDS011;23337;52.212;9.926;2022-07-04T00:00:03;0.93;;;0.83;;
37483;SDS011;23337;52.212;9.926;2022-07-04T00:02:30;1.10;;;0.70;;
37483;SDS011;23337;52.212;9.926;2022-07-04T00:04:56;2.40;;;0.60;;
37483;SDS011;23337;52.212;9.926;2022-07-04T00:07:22;0.83;;;0.50;;
37483;SDS011;23337;52.212;9.926;2022-07-04T00:09:48;2.07;;;0.53;;
37483;SDS011;23337;52.212;9.926;2022-07-04T00:12:14;0.70;;;0.57;;
37483;SDS011;23337;52.212;9.926;2022-07-04T00:14:40;6.83;;;1.00;;
37483;SDS011;23337;52.212;9.926;2022-07-04T00:17:06;3.67;;;0.87;;
37483;SDS011;23337;52.212;9.926;2022-07-04T00:19:32;1.10;;;0.83;;
37483;SDS011;23337;52.212;9.926;2022-07-04T00:21:58;1.77;;;0.83;;
37483;SDS011;23337;52.212;9.926;2022-07-04T00:24:24;0.83;;;0.60;;
37483;SDS011;23337;52.212;9.926;2022-07-04T00:26:50;2.50;;;0.70;;
37483;SDS011;23337;52.212;9.926;2022-07-04T00:29:16;1.00;;;0.70;;
37483;SDS011;23337;52.212;9.926;2022-07-04T00:31:42;2.17;;;0.90;;
37483;SDS011;23337;52.212;9.926;2022-07-04T00:34:08;0.90;;;0.70;;
37483;SDS011;23337;52.212;9.926;2022-07-04T00:36:34;2.33;;;1.17;;
37483;SDS011;23337;52.212;9.926;2022-07-04T00:39:00;2.50;;;0.90;;
37483;SDS011;23337;52.212;9.926;2022-07-04T00:41:26;1.27;;;0.90;;
37483;SDS011;23337;52.212;9.926;2022-07-04T00:43:59;1.13;;;0.63;;
37483;SDS011;23337;52.212;9.926;2022-07-04T00:46:25;3.50;;;1.10;;
37483;SDS011;23337;52.212;9.926;2022-07-04T00:48:51;2.50;;;0.80;;
37483;SDS011;23337;52.212;9.926;2022-07-04T00:51:17;4.07;;;1.87;;
37483;SDS011;23337;52.212;9.926;2022-07-04T00:53:44;4.37;;;0.90;;
37483;SDS011;23337;52.212;9.926;2022-07-04T00:56:10;2.20;;;1.00;;
37483;SDS011;23337;52.212;9.926;2022-07-04T00:58:36;0.80;;;0.80;;
37483;SDS011;23337;52.212;9.926;2022-07-04T01:01:02;2.70;;;0.90;;
37483;SDS011;23337;52.212;9.926;2022-07-04T01:03:28;1.00;;;0.50;;
37483;SDS011;23337;52.212;9.926;2022-07-04T01:05:55;2.07;;;0.80;;
37483;SDS011;23337;52.212;9.926;2022-07-04T01:08:21;2.03;;;0.70;;
37483;SDS011;23337;52.212;9.926;2022-07-04T01:10:47;2.40;;;1.53;;
37483;SDS011;23337;52.212;9.926;2022-07-04T01:13:22;2.97;;;1.00;;
37483;SDS011;23337;52.212;9.926;2022-07-04T01:15:49;2.47;;;0.80;;
37483;SDS011;23337;52.212;9.926;2022-07-04T01:18:15;1.93;;;0.80;;
37483;SDS011;23337;52.212;9.926;2022-07-04T01:20:41;1.50;;;0.73;;
37483;SDS011;23337;52.212;9.926;2022-07-04T01:23:07;1.03;;;0.87;;
37483;SDS011;23337;52.212;9.926;2022-07-04T01:25:33;4.87;;;0.90;;
37483;SDS011;23337;52.212;9.926;2022-07-04T01:27:59;1.40;;;0.80;;
37483;SDS011;23337;52.212;9.926;2022-07-04T01:30:26;2.37;;;0.97;;
37483;SDS011;23337;52.212;9.926;2022-07-04T01:32:52;3.47;;;1.10;;
37483;SDS011;23337;52.212;9.926;2022-07-04T01:35:18;3.77;;;0.87;;
37483;SDS011;23337;52.212;9.926;2022-07-04T01:37:44;1.57;;;1.13;;
37483;SDS011;23337;52.212;9.926;2022-07-04T01:40:11;1.07;;;0.97;;
37483;SDS011;23337;52.212;9.926;2022-07-04T01:42:37;2.63;;;0.90;;
37483;SDS011;23337;52.212;9.926;2022-07-04T01:45:04;5.80;;;1.10;;
37483;SDS011;23337;52.212;9.926;2022-07-04T01:47:30;2.03;;;0.77;;
37483;SDS011;23337;52.212;9.926;2022-07-04T01:49:56;2.87;;;0.70;;
37483;SDS011;23337;52.212;9.926;2022-07-04T01:52:22;2.93;;;1.03;;
37483;SDS011;23337;52.212;9.926;2022-07-04T01:54:48;4.20;;;1.10;;
37483;SDS011;23337;52.212;9.926;2022-07-04T01:57:14;2.47;;;1.00;;
37483;SDS011;23337;52.212;9.926;2022-07-04T01:59:40;4.80;;;1.10;;
37483;SDS011;23337;52.212;9.926;2022-07-04T02:02:24;3.13;;;1.20;;
37483;SDS011;23337;52.212;9.926;2022-07-04T02:04:50;4.20;;;1.30;;
37483;SDS011;23337;52.212;9.926;2022-07-04T02:07:17;1.83;;;1.20;;
37483;SDS011;23337;52.212;9.926;2022-07-04T02:09:43;1.60;;;0.93;;
37483;SDS011;23337;52.212;9.926;2022-07-04T02:12:09;2.23;;;1.07;;
37483;SDS011;23337;52.212;9.926;2022-07-04T02:14:53;5.13;;;1.57;;
37483;SDS011;23337;52.212;9.926;2022-07-04T02:17:19;2.70;;;1.33;;
37483;SDS011;23337;52.212;9.926;2022-07-04T02:19:46;4.27;;;1.03;;
37483;SDS011;23337;52.212;9.926;2022-07-04T02:22:12;2.23;;;1.00;;
37483;SDS011;23337;52.212;9.926;2022-07-04T02:24:39;2.53;;;1.30;;
37483;SDS011;23337;52.212;9.926;2022-07-04T02:27:05;2.60;;;1.03;;
37483;SDS011;23337;52.212;9.926;2022-07-04T02:29:31;4.77;;;1.90;;
37483;SDS011;23337;52.212;9.926;2022-07-04T02:31:57;3.23;;;1.23;;
37483;SDS011;23337;52.212;9.926;2022-07-04T02:34:23;3.43;;;1.10;;
37483;SDS011;23337;52.212;9.926;2022-07-04T02:36:49;1.83;;;1.13;;
37483;SDS011;23337;52.212;9.926;2022-07-04T02:39:15;11.60;;;1.63;;
37483;SDS011;23337;52.212;9.926;2022-07-04T02:41:41;1.37;;;1.10;;
37483;SDS011;23337;52.212;9.926;2022-07-04T02:44:07;4.10;;;1.70;;
37483;SDS011;23337;52.212;9.926;2022-07-04T02:46:33;2.50;;;1.03;;
37483;SDS011;23337;52.212;9.926;2022-07-04T02:48:59;4.20;;;1.10;;
37483;SDS011;23337;52.212;9.926;2022-07-04T02:51:25;2.63;;;1.50;;
37483;SDS011;23337;52.212;9.926;2022-07-04T02:53:52;1.57;;;1.20;;
37483;SDS011;23337;52.212;9.926;2022-07-04T02:56:18;3.70;;;1.50;;
37483;SDS011;23337;52.212;9.926;2022-07-04T02:58:44;3.40;;;1.70;;
37483;SDS011;23337;52.212;9.926;2022-07-04T03:01:10;4.93;;;1.50;;
37483;SDS011;23337;52.212;9.926;2022-07-04T03:03:37;3.40;;;1.43;;
37483;SDS011;23337;52.212;9.926;2022-07-04T03:06:04;4.60;;;1.27;;
37483;SDS011;23337;52.212;9.926;2022-07-04T03:08:30;3.90;;;1.20;;
37483;SDS011;23337;52.212;9.926;2022-07-04T03:10:56;4.90;;;1.40;;
37483;SDS011;23337;52.212;9.926;2022-07-04T03:13:22;4.83;;;1.80;;
37483;SDS011;23337;52.212;9.926;2022-07-04T03:15:49;2.57;;;1.20;;
37483;SDS011;23337;52.212;9.926;2022-07-04T03:18:16;1.97;;;1.40;;
37483;SDS011;23337;52.212;9.926;2022-07-04T03:20:42;3.50;;;1.83;;
37483;SDS011;23337;52.212;9.926;2022-07-04T03:23:08;2.07;;;1.33;;
37483;SDS011;23337;52.212;9.926;2022-07-04T03:25:34;1.60;;;1.50;;
37483;SDS011;23337;52.212;9.926;2022-07-04T03:28:00;3.77;;;1.33;;
37483;SDS011;23337;52.212;9.926;2022-07-04T03:30:26;2.30;;;1.50;;
37483;SDS011;23337;52.212;9.926;2022-07-04T03:32:52;3.40;;;1.57;;
37483;SDS011;23337;52.212;9.926;2022-07-04T03:35:18;6.63;;;1.97;;
37483;SDS011;23337;52.212;9.926;2022-07-04T03:37:44;4.30;;;1.50;;
37483;SDS011;23337;52.212;9.926;2022-07-04T03:40:10;3.70;;;1.50;;
37483;SDS011;23337;52.212;9.926;2022-07-04T03:42:36;2.97;;;1.47;;
37483;SDS011;23337;52.212;9.926;2022-07-04T03:45:03;8.43;;;1.70;;
37483;SDS011;23337;52.212;9.926;2022-07-04T03:47:29;1.97;;;1.20;;
37483;SDS011;23337;52.212;9.926;2022-07-04T03:49:55;7.67;;;1.90;;
37483;SDS011;23337;52.212;9.926;2022-07-04T03:52:21;3.60;;;1.87;;
37483;SDS011;23337;52.212;9.926;2022-07-04T03:54:47;3.80;;;1.70;;
37483;SDS011;23337;52.212;9.926;2022-07-04T03:57:13;4.07;;;1.60;;
37483;SDS011;23337;52.212;9.926;2022-07-04T03:59:38;1.87;;;1.23;;
37483;SDS011;23337;52.212;9.926;2022-07-04T04:02:04;3.47;;;1.30;;
37483;SDS011;23337;52.212;9.926;2022-07-04T04:04:30;3.50;;;1.27;;
37483;SDS011;23337;52.212;9.926;2022-07-04T04:07:15;5.87;;;1.43;;
37483;SDS011;23337;52.212;9.926;2022-07-04T04:09:41;4.07;;;1.37;;
37483;SDS011;23337;52.212;9.926;2022-07-04T04:12:07;5.63;;;1.97;;
37483;SDS011;23337;52.212;9.926;2022-07-04T04:14:33;2.17;;;1.60;;
37483;SDS011;23337;52.212;9.926;2022-07-04T04:16:59;3.47;;;1.50;;
37483;SDS011;23337;52.212;9.926;2022-07-04T04:19:25;6.50;;;1.67;;
37483;SDS011;23337;52.212;9.926;2022-07-04T04:21:51;2.23;;;1.20;;
37483;SDS011;23337;52.212;9.926;2022-07-04T04:24:17;6.47;;;1.80;;
37483;SDS011;23337;52.212;9.926;2022-07-04T04:26:43;3.87;;;1.70;;
37483;SDS011;23337;52.212;9.926;2022-07-04T04:29:09;3.40;;;1.17;;
37483;SDS011;23337;52.212;9.926;2022-07-04T04:31:35;4.73;;;1.47;;
37483;SDS011;23337;52.212;9.926;2022-07-04T04:34:01;3.50;;;1.30;;
37483;SDS011;23337;52.212;9.926;2022-07-04T04:36:27;3.43;;;1.50;;
37483;SDS011;23337;52.212;9.926;2022-07-04T04:38:53;3.50;;;1.60;;
37483;SDS011;23337;52.212;9.926;2022-07-04T04:41:19;3.63;;;1.70;;
37483;SDS011;23337;52.212;9.926;2022-07-04T04:43:45;6.63;;;1.53;;
37483;SDS011;23337;52.212;9.926;2022-07-04T04:46:11;6.90;;;2.20;;
37483;SDS011;23337;52.212;9.926;2022-07-04T04:48:37;8.30;;;2.23;;
37483;SDS011;23337;52.212;9.926;2022-07-04T04:51:03;3.60;;;2.07;;
37483;SDS011;23337;52.212;9.926;2022-07-04T04:53:29;2.77;;;1.53;;
37483;SDS011;23337;52.212;9.926;2022-07-04T04:55:55;4.20;;;2.03;;
37483;SDS011;23337;52.212;9.926;2022-07-04T04:58:21;7.43;;;1.93;;
37483;SDS011;23337;52.212;9.926;2022-07-04T05:00:47;6.80;;;1.90;;
37483;SDS011;23337;52.212;9.926;2022-07-04T05:03:14;5.47;;;1.60;;
37483;SDS011;23337;52.212;9.926;2022-07-04T05:05:41;5.00;;;2.17;;
37483;SDS011;23337;52.212;9.926;2022-07-04T05:08:07;4.70;;;2.10;;
37483;SDS011;23337;52.212;9.926;2022-07-04T05:10:32;4.70;;;2.20;;
37483;SDS011;23337;52.212;9.926;2022-07-04T05:12:58;6.73;;;2.03;;
37483;SDS011;23337;52.212;9.926;2022-07-04T05:15:24;6.40;;;2.53;;
37483;SDS011;23337;52.212;9.926;2022-07-04T05:17:50;3.50;;;1.87;;
37483;SDS011;23337;52.212;9.926;2022-07-04T05:20:17;5.63;;;2.43;;
37483;SDS011;23337;52.212;9.926;2022-07-04T05:22:43;5.57;;;2.20;;
37483;SDS011;23337;52.212;9.926;2022-07-04T05:25:09;4.57;;;2.67;;
37483;SDS011;23337;52.212;9.926;2022-07-04T05:27:35;7.63;;;2.63;;
37483;SDS011;23337;52.212;9.926;2022-07-04T05:30:02;5.17;;;2.47;;
37483;SDS011;23337;52.212;9.926;2022-07-04T05:32:28;5.80;;;2.50;;
37483;SDS011;23337;52.212;9.926;2022-07-04T05:34:54;7.27;;;2.63;;
37483;SDS011;23337;52.212;9.926;2022-07-04T05:37:21;6.10;;;3.23;;
37483;SDS011;23337;52.212;9.926;2022-07-04T05:39:47;5.30;;;2.63;;
37483;SDS011;23337;52.212;9.926;2022-07-04T05:42:14;3.77;;;2.70;;
37483;SDS011;23337;52.212;9.926;2022-07-04T05:44:40;4.13;;;2.60;;
37483;SDS011;23337;52.212;9.926;2022-07-04T05:47:06;5.30;;;3.27;;
37483;SDS011;23337;52.212;9.926;2022-07-04T05:49:32;3.90;;;2.80;;
37483;SDS011;23337;52.212;9.926;2022-07-04T05:51:58;4.07;;;3.00;;
37483;SDS011;23337;52.212;9.926;2022-07-04T05:54:24;4.17;;;3.07;;
37483;SDS011;23337;52.212;9.926;2022-07-04T05:56:50;3.40;;;2.83;;
37483;SDS011;23337;52.212;9.926;2022-07-04T05:59:15;4.63;;;3.40;;
37483;SDS011;23337;52.212;9.926;2022-07-04T06:01:41;5.63;;;3.47;;
37483;SDS011;23337;52.212;9.926;2022-07-04T06:04:08;4.70;;;3.67;;
37483;SDS011;23337;52.212;9.926;2022-07-04T06:06:34;5.87;;;3.77;;
37483;SDS011;23337;52.212;9.926;2022-07-04T06:09:00;3.90;;;3.30;;
37483;SDS011;23337;52.212;9.926;2022-07-04T06:11:28;5.97;;;3.97;;
37483;SDS011;23337;52.212;9.926;2022-07-04T06:13:54;4.57;;;4.10;;
37483;SDS011;23337;52.212;9.926;2022-07-04T06:16:20;4.37;;;3.03;;
37483;SDS011;23337;52.212;9.926;2022-07-04T06:18:46;4.27;;;3.87;;
37483;SDS011;23337;52.212;9.926;2022-07-04T06:21:12;6.53;;;4.30;;
37483;SDS011;23337;52.212;9.926;2022-07-04T06:23:38;4.97;;;3.93;;
37483;SDS011;23337;52.212;9.926;2022-07-04T06:26:04;5.77;;;4.10;;
37483;SDS011;23337;52.212;9.926;2022-07-04T06:28:30;4.73;;;4.27;;
37483;SDS011;23337;52.212;9.926;2022-07-04T06:30:56;4.90;;;4.40;;
37483;SDS011;23337;52.212;9.926;2022-07-04T06:33:22;5.47;;;3.90;;
37483;SDS011;23337;52.212;9.926;2022-07-04T06:35:48;4.97;;;4.03;;
37483;SDS011;23337;52.212;9.926;2022-07-04T06:38:19;4.27;;;3.83;;
37483;SDS011;23337;52.212;9.926;2022-07-04T06:40:46;4.00;;;3.03;;
37483;SDS011;23337;52.212;9.926;2022-07-04T06:43:12;3.23;;;2.90;;
37483;SDS011;23337;52.212;9.926;2022-07-04T06:45:38;4.43;;;2.27;;
37483;SDS011;23337;52.212;9.926;2022-07-04T06:48:05;5.47;;;2.70;;
37483;SDS011;23337;52.212;9.926;2022-07-04T06:50:31;2.43;;;1.97;;
37483;SDS011;23337;52.212;9.926;2022-07-04T06:53:07;2.47;;;1.87;;
37483;SDS011;23337;52.212;9.926;2022-07-04T06:55:33;3.93;;;2.50;;
37483;SDS011;23337;52.212;9.926;2022-07-04T06:57:59;5.57;;;2.30;;
37483;SDS011;23337;52.212;9.926;2022-07-04T07:00:25;3.13;;;2.33;;
37483;SDS011;23337;52.212;9.926;2022-07-04T07:02:52;4.47;;;2.77;;
37483;SDS011;23337;52.212;9.926;2022-07-04T07:05:18;3.17;;;2.87;;
37483;SDS011;23337;52.212;9.926;2022-07-04T07:07:43;3.97;;;2.90;;
37483;SDS011;23337;52.212;9.926;2022-07-04T07:10:09;4.47;;;3.00;;
37483;SDS011;23337;52.212;9.926;2022-07-04T07:12:35;4.63;;;3.30;;
37483;SDS011;23337;52.212;9.926;2022-07-04T07:15:01;3.17;;;2.53;;
37483;SDS011;23337;52.212;9.926;2022-07-04T07:17:28;2.73;;;1.80;;
37483;SDS011;23337;52.212;9.926;2022-07-04T07:19:54;2.47;;;2.03;;
37483;SDS011;23337;52.212;9.926;2022-07-04T07:22:20;3.57;;;1.80;;
37483;SDS011;23337;52.212;9.926;2022-07-04T07:24:46;2.53;;;1.77;;
37483;SDS011;23337;52.212;9.926;2022-07-04T07:27:12;2.67;;;1.67;;
37483;SDS011;23337;52.212;9.926;2022-07-04T07:29:38;3.27;;;1.63;;
37483;SDS011;23337;52.212;9.926;2022-07-04T07:32:05;3.97;;;2.07;;
37483;SDS011;23337;52.212;9.926;2022-07-04T07:34:31;1.60;;;1.50;;
37483;SDS011;23337;52.212;9.926;2022-07-04T07:36:57;2.70;;;1.63;;
37483;SDS011;23337;52.212;9.926;2022-07-04T07:39:23;4.07;;;1.47;;
37483;SDS011;23337;52.212;9.926;2022-07-04T07:41:49;2.80;;;1.70;;
37483;SDS011;23337;52.212;9.926;2022-07-04T07:44:15;2.70;;;1.37;;
37483;SDS011;23337;52.212;9.926;2022-07-04T07:46:41;2.20;;;1.47;;
37483;SDS011;23337;52.212;9.926;2022-07-04T07:49:07;1.60;;;1.40;;
37483;SDS011;23337;52.212;9.926;2022-07-04T07:51:33;4.00;;;1.67;;
37483;SDS011;23337;52.212;9.926;2022-07-04T07:53:59;4.50;;;1.47;;
37483;SDS011;23337;52.212;9.926;2022-07-04T07:56:25;2.33;;;1.50;;
37483;SDS011;23337;52.212;9.926;2022-07-04T07:58:51;2.23;;;1.40;;
37483;SDS011;23337;52.212;9.926;2022-07-04T08:01:17;4.17;;;1.63;;
37483;SDS011;23337;52.212;9.926;2022-07-04T08:03:43;2.47;;;1.30;;
37483;SDS011;23337;52.212;9.926;2022-07-04T08:06:28;2.87;;;1.37;;
37483;SDS011;23337;52.212;9.926;2022-07-04T08:08:54;2.87;;;1.27;;
37483;SDS011;23337;52.212;9.926;2022-07-04T08:11:20;2.43;;;1.27;;
37483;SDS011;23337;52.212;9.926;2022-07-04T08:13:46;2.07;;;0.97;;
37483;SDS011;23337;52.212;9.926;2022-07-04T08:16:12;1.80;;;1.07;;
37483;SDS011;23337;52.212;9.926;2022-07-04T08:18:38;1.20;;;0.90;;
37483;SDS011;23337;52.212;9.926;2022-07-04T08:21:04;1.30;;;0.87;;
37483;SDS011;23337;52.212;9.926;2022-07-04T08:23:30;3.77;;;1.20;;
37483;SDS011;23337;52.212;9.926;2022-07-04T08:25:57;2.33;;;0.80;;
37483;SDS011;23337;52.212;9.926;2022-07-04T08:28:23;1.17;;;0.93;;
37483;SDS011;23337;52.212;9.926;2022-07-04T08:30:49;3.63;;;1.40;;
37483;SDS011;23337;52.212;9.926;2022-07-04T08:33:15;1.50;;;0.80;;
37483;SDS011;23337;52.212;9.926;2022-07-04T08:35:41;1.30;;;0.90;;
37483;SDS011;23337;52.212;9.926;2022-07-04T08:38:08;1.23;;;0.90;;
37483;SDS011;23337;52.212;9.926;2022-07-04T08:40:34;1.67;;;0.83;;
37483;SDS011;23337;52.212;9.926;2022-07-04T08:43:00;0.90;;;0.83;;
37483;SDS011;23337;52.212;9.926;2022-07-04T08:45:27;2.73;;;0.90;;
37483;SDS011;23337;52.212;9.926;2022-07-04T08:47:59;4.87;;;1.03;;
37483;SDS011;23337;52.212;9.926;2022-07-04T08:50:26;2.93;;;1.30;;
37483;SDS011;23337;52.212;9.926;2022-07-04T08:55:27;5.07;;;1.20;;
37483;SDS011;23337;52.212;9.926;2022-07-04T08:58:12;2.50;;;1.10;;
37483;SDS011;23337;52.212;9.926;2022-07-04T09:00:50;1.57;;;1.10;;
37483;SDS011;23337;52.212;9.926;2022-07-04T09:03:17;1.00;;;0.90;;
37483;SDS011;23337;52.212;9.926;2022-07-04T09:05:43;3.80;;;1.30;;
37483;SDS011;23337;52.212;9.926;2022-07-04T09:08:09;1.67;;;0.90;;
37483;SDS011;23337;52.212;9.926;2022-07-04T09:10:36;3.20;;;1.07;;
37483;SDS011;23337;52.212;9.926;2022-07-04T09:13:03;1.20;;;0.70;;
37483;SDS011;23337;52.212;9.926;2022-07-04T09:15:29;3.40;;;1.00;;
37483;SDS011;23337;52.212;9.926;2022-07-04T09:17:55;2.60;;;0.87;;
37483;SDS011;23337;52.212;9.926;2022-07-04T09:20:21;1.70;;;0.83;;
37483;SDS011;23337;52.212;9.926;2022-07-04T09:22:50;1.97;;;0.70;;
37483;SDS011;23337;52.212;9.926;2022-07-04T09:25:16;2.40;;;0.77;;
37483;SDS011;23337;52.212;9.926;2022-07-04T09:27:44;2.20;;;0.80;;
37483;SDS011;23337;52.212;9.926;2022-07-04T09:30:12;2.87;;;0.60;;
37483;SDS011;23337;52.212;9.926;2022-07-04T09:35:05;2.67;;;0.90;;
37483;SDS011;23337;52.212;9.926;2022-07-04T09:37:35;1.33;;;0.70;;
37483;SDS011;23337;52.212;9.926;2022-07-04T09:40:05;3.37;;;0.90;;
37483;SDS011;23337;52.212;9.926;2022-07-04T09:42:35;1.90;;;0.90;;
37483;SDS011;23337;52.212;9.926;2022-07-04T09:45:08;1.83;;;0.70;;
37483;SDS011;23337;52.212;9.926;2022-07-04T09:47:36;1.47;;;0.70;;
37483;SDS011;23337;52.212;9.926;2022-07-04T09:50:03;3.50;;;0.50;;
37483;SDS011;23337;52.212;9.926;2022-07-04T09:52:29;0.83;;;0.50;;
37483;SDS011;23337;52.212;9.926;2022-07-04T09:54:59;0.97;;;0.60;;
37483;SDS011;23337;52.212;9.926;2022-07-04T09:57:28;1.97;;;0.60;;
37483;SDS011;23337;52.212;9.926;2022-07-04T09:59:54;1.20;;;0.60;;
37483;SDS011;23337;52.212;9.926;2022-07-04T10:02:20;1.53;;;0.80;;
37483;SDS011;23337;52.212;9.926;2022-07-04T10:04:51;2.47;;;0.67;;
37483;SDS011;23337;52.212;9.926;2022-07-04T10:07:39;3.03;;;0.57;;
37483;SDS011;23337;52.212;9.926;2022-07-04T10:13:10;2.17;;;0.50;;
37483;SDS011;23337;52.212;9.926;2022-07-04T10:15:38;1.87;;;0.40;;
37483;SDS011;23337;52.212;9.926;2022-07-04T10:18:05;1.93;;;0.50;;
37483;SDS011;23337;52.212;9.926;2022-07-04T10:20:31;0.60;;;0.30;;
37483;SDS011;23337;52.212;9.926;2022-07-04T10:22:58;2.73;;;0.67;;
37483;SDS011;23337;52.212;9.926;2022-07-04T10:25:24;2.30;;;0.43;;
37483;SDS011;23337;52.212;9.926;2022-07-04T10:27:50;2.90;;;0.43;;
37483;SDS011;23337;52.212;9.926;2022-07-04T10:30:22;0.60;;;0.30;;
37483;SDS011;23337;52.212;9.926;2022-07-04T10:32:49;2.03;;;0.33;;
37483;SDS011;23337;52.212;9.926;2022-07-04T10:35:15;3.27;;;0.63;;
37483;SDS011;23337;52.212;9.926;2022-07-04T10:38:01;2.13;;;0.70;;
37483;SDS011;23337;52.212;9.926;2022-07-04T10:51:38;1.07;;;0.50;;
37483;SDS011;23337;52.212;9.926;2022-07-04T10:54:05;0.80;;;0.50;;
37483;SDS011;23337;52.212;9.926;2022-07-04T10:56:36;1.63;;;0.50;;
37483;SDS011;23337;52.212;9.926;2022-07-04T10:59:07;1.30;;;0.53;;
37483;SDS011;23337;52.212;9.926;2022-07-04T11:01:33;1.77;;;0.60;;
37483;SDS011;23337;52.212;9.926;2022-07-04T11:03:59;0.70;;;0.37;;
37483;SDS011;23337;52.212;9.926;2022-07-04T11:09:24;2.30;;;0.50;;
37483;SDS011;23337;52.212;9.926;2022-07-04T11:17:09;3.23;;;1.07;;
37483;SDS011;23337;52.212;9.926;2022-07-04T11:19:36;6.13;;;1.33;;
37483;SDS011;23337;52.212;9.926;2022-07-04T11:22:02;5.00;;;0.70;;
37483;SDS011;23337;52.212;9.926;2022-07-04T11:24:30;0.70;;;0.40;;
37483;SDS011;23337;52.212;9.926;2022-07-04T11:26:56;11.20;;;1.40;;
37483;SDS011;23337;52.212;9.926;2022-07-04T11:29:23;12.00;;;1.70;;
37483;SDS011;23337;52.212;9.926;2022-07-04T11:31:49;11.90;;;1.60;;
37483;SDS011;23337;52.212;9.926;2022-07-04T11:34:16;5.23;;;0.73;;
37483;SDS011;23337;52.212;9.926;2022-07-04T11:36:43;0.70;;;0.50;;
37483;SDS011;23337;52.212;9.926;2022-07-04T11:39:11;0.90;;;0.50;;
37483;SDS011;23337;52.212;9.926;2022-07-04T11:41:38;1.70;;;0.40;;
37483;SDS011;23337;52.212;9.926;2022-07-04T11:44:26;1.33;;;0.30;;
37483;SDS011;23337;52.212;9.926;2022-07-04T11:47:13;1.13;;;0.50;;
37483;SDS011;23337;52.212;9.926;2022-07-04T11:49:44;0.47;;;0.30;;
37483;SDS011;23337;52.212;9.926;2022-07-04T11:52:11;1.13;;;0.30;;
37483;SDS011;23337;52.212;9.926;2022-07-04T11:54:38;1.90;;;0.50;;
37483;SDS011;23337;52.212;9.926;2022-07-04T11:57:08;1.77;;;0.40;;
37483;SDS011;23337;52.212;9.926;2022-07-04T11:59:34;0.83;;;0.37;;
37483;SDS011;23337;52.212;9.926;2022-07-04T12:02:09;1.63;;;0.53;;
37483;SDS011;23337;52.212;9.926;2022-07-04T12:04:36;1.43;;;0.60;;
37483;SDS011;23337;52.212;9.926;2022-07-04T12:07:08;1.83;;;0.47;;
37483;SDS011;23337;52.212;9.926;2022-07-04T12:09:34;2.60;;;0.67;;
37483;SDS011;23337;52.212;9.926;2022-07-04T12:12:00;0.70;;;0.50;;
37483;SDS011;23337;52.212;9.926;2022-07-04T12:14:27;0.37;;;0.30;;
37483;SDS011;23337;52.212;9.926;2022-07-04T12:19:37;1.10;;;0.30;;
37483;SDS011;23337;52.212;9.926;2022-07-04T12:22:03;1.90;;;0.33;;
37483;SDS011;23337;52.212;9.926;2022-07-04T12:24:42;1.90;;;0.20;;
37483;SDS011;23337;52.212;9.926;2022-07-04T12:27:15;1.97;;;0.40;;
37483;SDS011;23337;52.212;9.926;2022-07-04T12:29:46;0.60;;;0.50;;
37483;SDS011;23337;52.212;9.926;2022-07-04T12:32:12;1.10;;;0.60;;
37483;SDS011;23337;52.212;9.926;2022-07-04T12:34:39;2.53;;;0.37;;
37483;SDS011;23337;52.212;9.926;2022-07-04T12:37:09;1.53;;;0.50;;
37483;SDS011;23337;52.212;9.926;2022-07-04T12:39:36;0.30;;;0.30;;
37483;SDS011;23337;52.212;9.926;2022-07-04T12:42:23;1.13;;;0.40;;
37483;SDS011;23337;52.212;9.926;2022-07-04T12:44:48;1.23;;;0.40;;
37483;SDS011;23337;52.212;9.926;2022-07-04T12:47:15;1.40;;;0.43;;
37483;SDS011;23337;52.212;9.926;2022-07-04T12:49:42;2.60;;;0.40;;
37483;SDS011;23337;52.212;9.926;2022-07-04T12:54:34;3.03;;;0.70;;
37483;SDS011;23337;52.212;9.926;2022-07-04T12:57:07;0.27;;;0.20;;
37483;SDS011;23337;52.212;9.926;2022-07-04T12:59:34;1.27;;;0.37;;
37483;SDS011;23337;52.212;9.926;2022-07-04T13:02:00;0.70;;;0.40;;
37483;SDS011;23337;52.212;9.926;2022-07-04T13:04:26;0.50;;;0.40;;
37483;SDS011;23337;52.212;9.926;2022-07-04T13:06:52;1.13;;;0.40;;
37483;SDS011;23337;52.212;9.926;2022-07-04T13:09:18;1.83;;;0.60;;
37483;SDS011;23337;52.212;9.926;2022-07-04T13:11:44;0.43;;;0.40;;
37483;SDS011;23337;52.212;9.926;2022-07-04T13:14:28;1.40;;;0.50;;
37483;SDS011;23337;52.212;9.926;2022-07-04T13:16:54;0.73;;;0.50;;
37483;SDS011;23337;52.212;9.926;2022-07-04T13:19:20;0.50;;;0.40;;
37483;SDS011;23337;52.212;9.926;2022-07-04T13:21:46;1.93;;;0.60;;
37483;SDS011;23337;52.212;9.926;2022-07-04T13:24:12;0.50;;;0.40;;
37483;SDS011;23337;52.212;9.926;2022-07-04T13:26:38;0.70;;;0.40;;
37483;SDS011;23337;52.212;9.926;2022-07-04T13:29:05;3.07;;;0.60;;
37483;SDS011;23337;52.212;9.926;2022-07-04T13:31:31;1.00;;;0.33;;
37483;SDS011;23337;52.212;9.926;2022-07-04T13:33:57;1.90;;;0.63;;
37483;SDS011;23337;52.212;9.926;2022-07-04T13:36:23;0.70;;;0.33;;
37483;SDS011;23337;52.212;9.926;2022-07-04T13:38:49;3.40;;;0.60;;
37483;SDS011;23337;52.212;9.926;2022-07-04T13:41:15;1.63;;;0.60;;
37483;SDS011;23337;52.212;9.926;2022-07-04T13:43:41;3.07;;;0.70;;
37483;SDS011;23337;52.212;9.926;2022-07-04T13:46:07;1.77;;;0.40;;
37483;SDS011;23337;52.212;9.926;2022-07-04T13:48:33;1.77;;;0.60;;
37483;SDS011;23337;52.212;9.926;2022-07-04T13:50:59;2.53;;;0.30;;
37483;SDS011;23337;52.212;9.926;2022-07-04T13:53:25;0.87;;;0.30;;
37483;SDS011;23337;52.212;9.926;2022-07-04T13:55:51;3.77;;;0.60;;
37483;SDS011;23337;52.212;9.926;2022-07-04T13:58:17;0.93;;;0.40;;
37483;SDS011;23337;52.212;9.926;2022-07-04T14:00:43;1.73;;;0.60;;
37483;SDS011;23337;52.212;9.926;2022-07-04T14:03:12;1.30;;;0.50;;
37483;SDS011;23337;52.212;9.926;2022-07-04T14:05:40;1.23;;;0.30;;
37483;SDS011;23337;52.212;9.926;2022-07-04T14:08:06;1.40;;;0.30;;
37483;SDS011;23337;52.212;9.926;2022-07-04T14:10:32;1.27;;;0.50;;
37483;SDS011;23337;52.212;9.926;2022-07-04T14:12:58;2.33;;;0.57;;
37483;SDS011;23337;52.212;9.926;2022-07-04T14:15:24;1.73;;;0.30;;
37483;SDS011;23337;52.212;9.926;2022-07-04T14:17:50;1.50;;;0.40;;
37483;SDS011;23337;52.212;9.926;2022-07-04T14:20:16;7.80;;;0.87;;
37483;SDS011;23337;52.212;9.926;2022-07-04T14:22:44;3.17;;;0.53;;
37483;SDS011;23337;52.212;9.926;2022-07-04T14:25:10;6.30;;;1.07;;
37483;SDS011;23337;52.212;9.926;2022-07-04T14:27:36;5.33;;;0.97;;
37483;SDS011;23337;52.212;9.926;2022-07-04T14:30:03;1.47;;;0.60;;
37483;SDS011;23337;52.212;9.926;2022-07-04T14:32:29;0.33;;;0.30;;
37483;SDS011;23337;52.212;9.926;2022-07-04T14:34:55;1.63;;;0.70;;
37483;SDS011;23337;52.212;9.926;2022-07-04T14:37:21;1.27;;;0.50;;
37483;SDS011;23337;52.212;9.926;2022-07-04T14:39:47;0.70;;;0.40;;
37483;SDS011;23337;52.212;9.926;2022-07-04T14:42:13;2.43;;;0.50;;
37483;SDS011;23337;52.212;9.926;2022-07-04T14:44:39;1.13;;;0.50;;
37483;SDS011;23337;52.212;9.926;2022-07-04T14:47:05;1.33;;;0.50;;
37483;SDS011;23337;52.212;9.926;2022-07-04T14:49:31;3.70;;;0.60;;
37483;SDS011;23337;52.212;9.926;2022-07-04T14:51:57;2.45;;;0.30;;
37483;SDS011;23337;52.212;9.926;2022-07-04T14:54:23;3.20;;;1.33;;
37483;SDS011;23337;52.212;9.926;2022-07-04T14:56:49;2.17;;;0.55;;
37483;SDS011;23337;52.212;9.926;2022-07-04T14:59:15;2.80;;;0.57;;
37483;SDS011;23337;52.212;9.926;2022-07-04T15:01:41;0.90;;;0.50;;
37483;SDS011;23337;52.212;9.926;2022-07-04T15:04:08;2.40;;;0.43;;
37483;SDS011;23337;52.212;9.926;2022-07-04T15:06:34;1.33;;;0.30;;
37483;SDS011;23337;52.212;9.926;2022-07-04T15:09:02;1.77;;;0.60;;
37483;SDS011;23337;52.212;9.926;2022-07-04T15:11:28;1.48;;;0.47;;
37483;SDS011;23337;52.212;9.926;2022-07-04T15:13:54;1.23;;;0.40;;
37483;SDS011;23337;52.212;9.926;2022-07-04T15:16:20;1.27;;;0.40;;
37483;SDS011;23337;52.212;9.926;2022-07-04T15:18:46;0.95;;;0.40;;